• Join FlightAware (Why Join?)
  • Login
  • US Flag 
03:13PM EDT


 

Airport Tracker/Info


-or-


 

Live Flight TrackerFlight Track Log ✈ JZA8245 ✈ 02-May-2013 ✈ CYXT - CYVR

Flight Track Log - Related Links

Times and Time Zones

All times are in EDT time to prevent confusion due to time zone crossing. See the JZA8245 flight status page for this flight to view local times or setup timezone preferences in your user account.

Time Position Orientation Groundspeed Altitude Reporting Facility
EDT Latitude Longitude Course Direction KTS MPH feet Rate Location/Type
10:56PM 53.3390 -127.7085 138° Southeast  Level FlightAware Approximate
10:57PM 53.2771 -127.6282 143° Southeast  Level FlightAware Approximate
10:58PM 53.2146 -127.5489 143° Southeast  Level FlightAware Approximate
10:59PM 53.1522 -127.4698 143° Southeast  Level FlightAware Approximate
11:00PM 53.0896 -127.3909 143° Southeast  Level FlightAware Approximate
11:01PM 53.0271 -127.3123 143° Southeast  Level FlightAware Approximate
11:02PM 52.9645 -127.2339 143° Southeast  Level FlightAware Approximate
11:03PM 52.9018 -127.1557 143° Southeast  Level FlightAware Approximate
11:04PM 52.8391 -127.0778 143° Southeast  Level FlightAware Approximate
11:05PM 52.7765 -126.9997 143° Southeast  Level FlightAware Approximate
11:06PM 52.7140 -126.9213 143° Southeast  Level FlightAware Approximate
11:07PM 52.6516 -126.8430 143° Southeast  Level FlightAware Approximate
11:08PM 52.5891 -126.7649 143° Southeast  Level FlightAware Approximate
11:09PM 52.5266 -126.6870 143° Southeast  Level FlightAware Approximate
11:10PM 52.4641 -126.6094 143° Southeast  Level FlightAware Approximate
11:11PM 52.4015 -126.5319 143° Southeast  Level FlightAware Approximate
11:12PM 52.3388 -126.4547 143° Southeast  Level FlightAware Approximate
11:13PM 52.2761 -126.3777 143° Southeast  Level FlightAware Approximate
11:14PM 52.2134 -126.3009 143° Southeast  Level FlightAware Approximate
11:15PM 52.1506 -126.2244 143° Southeast  Level FlightAware Approximate
11:16PM 52.0877 -126.1480 143° Southeast  Level FlightAware Approximate
11:17PM 52.0248 -126.0719 143° Southeast  Level FlightAware Approximate
11:18PM 51.9619 -125.9960 143° Southeast  Level FlightAware Approximate
11:19PM 51.8989 -125.9203 143° Southeast  Level FlightAware Approximate
11:20PM 51.8358 -125.8448 143° Southeast  Level FlightAware Approximate
11:21PM 51.7728 -125.7695 144° Southeast  Level FlightAware Approximate
11:22PM 51.7096 -125.6944 144° Southeast  Level FlightAware Approximate
11:23PM 51.6464 -125.6196 144° Southeast  Level FlightAware Approximate
11:24PM 51.5832 -125.5449 144° Southeast  Level FlightAware Approximate
11:25PM 51.5199 -125.4704 144° Southeast  Level FlightAware Approximate
11:26PM 51.4564 -125.3965 144° Southeast  Level FlightAware Approximate
11:27PM 51.3929 -125.3227 144° Southeast  Level FlightAware Approximate
11:28PM 51.3293 -125.2492 144° Southeast  Level FlightAware Approximate
11:29PM 51.2657 -125.1759 144° Southeast  Level FlightAware Approximate
11:30PM 51.2020 -125.1028 144° Southeast  Level FlightAware Approximate
11:31PM 51.1383 -125.0299 144° Southeast  Level FlightAware Approximate
11:32PM 51.0746 -124.9572 144° Southeast  Level FlightAware Approximate
11:33PM 51.0107 -124.8847 144° Southeast  Level FlightAware Approximate
11:34PM 50.9469 -124.8124 144° Southeast  Level FlightAware Approximate
11:35PM 50.8830 -124.7403 145° Southeast  Level FlightAware Approximate
11:36PM 50.8191 -124.6684 145° Southeast  Level FlightAware Approximate
11:37PM 50.7551 -124.5967 145° Southeast  Level FlightAware Approximate
11:38PM 50.6911 -124.5252 145° Southeast  Level FlightAware Approximate
11:39PM 50.6270 -124.4539 145° Southeast  Level FlightAware Approximate
11:40PM 50.5629 -124.3828 145° Southeast  Level FlightAware Approximate
11:41PM 50.4977 -124.3143 148° Southeast  Level FlightAware Approximate
11:42PM 50.4365 -124.2381 136° Southeast  Level FlightAware Approximate
11:43PM 50.3672 -124.1812 153° Southeast  Level FlightAware Approximate
11:44PM 50.2972 -124.1261 153° Southeast  Level FlightAware Approximate
11:45PM 50.2271 -124.0712 153° Southeast  Level FlightAware Approximate
11:46PM 50.1558 -124.0101 150° Southeast  Level FlightAware Approximate
11:47PM 50.0854 -123.9467 150° Southeast  Level FlightAware Approximate
11:48PM 50.0139 -123.8870 157° South  Level FlightAware Approximate
11:49PM 49.9404 -123.8332 153° Southeast  Level FlightAware Approximate
11:50PM 49.8677 -123.7767 153° Southeast  Level FlightAware Approximate
11:51PM 49.7973 -123.7140 147° Southeast  Level FlightAware Approximate
11:52PM 49.7291 -123.6457 147° Southeast  Level FlightAware Approximate
11:53PM 49.6608 -123.5775 147° Southeast  Level FlightAware Approximate
11:54PM 49.5926 -123.5093 147° Southeast  Level FlightAware Approximate
11:55PM 49.5244 -123.4411 147° Southeast  Level FlightAware Approximate
11:56PM 49.4563 -123.3729 147° Southeast  Level FlightAware Approximate
11:57PM 49.3902 -123.3211 186° South  Level FlightAware Approximate
11:58PM 49.3094 -123.3333 180° South  Level FlightAware Approximate
11:59PM 49.2970 -123.4154 284° West  Level FlightAware Approximate
12:00AM 49.3151 -123.5317 147° Southeast  Level FlightAware Approximate
12:01AM 49.2757 -123.4272 117° Southeast  Level FlightAware Approximate
12:02AM 49.2333 -123.3233 90° East  Level FlightAware Approximate
12:03AM 49.1961 -123.2217 117° Southeast  Level FlightAware Approximate
12:04AM 49.1833 -123.1833 117° Southeast  Level FlightAware Approximate
12:05AM 49.1939 -123.1844 117° Southeast  Level Estimated
12:06AM 49.1939 -123.1844 117° Southeast  Level Estimated
12:07AM 49.1939 -123.1844 117° Southeast  Level Estimated
12:08AM 49.1939 -123.1844 117° Southeast  Level Estimated
12:09AM 49.1939 -123.1844 117° Southeast  Level Estimated